createdAt,value
2022-12-06T00:00:01.916Z,101733.76
2022-12-06T00:02:54.881Z,101731.27
2022-12-06T00:05:25.449Z,101730.41
2022-12-06T00:07:57.784Z,101734.40
2022-12-06T00:10:30.082Z,101736.33
2022-12-06T00:13:02.313Z,101738.63
2022-12-06T00:15:38.280Z,101734.16
2022-12-06T00:18:10.455Z,101737.05
2022-12-06T00:20:42.630Z,101736.23
2022-12-06T00:23:14.976Z,101733.33
2022-12-06T00:25:47.164Z,101729.85
2022-12-06T00:28:19.459Z,101725.20
2022-12-06T00:30:51.672Z,101723.81
2022-12-06T00:33:23.932Z,101724.40
2022-12-06T00:36:00.117Z,101724.14
2022-12-06T00:38:33.053Z,101724.27
2022-12-06T00:41:07.008Z,101721.45
2022-12-06T00:43:39.556Z,101720.13
2022-12-06T00:46:10.809Z,101718.56
2022-12-06T00:48:43.116Z,101713.52
2022-12-06T00:51:16.417Z,101715.05
2022-12-06T00:53:48.862Z,101717.05
2022-12-06T00:56:21.679Z,101711.96
2022-12-06T00:58:53.948Z,101707.59
2022-12-06T01:01:28.019Z,101708.09
2022-12-06T01:04:02.476Z,101711.27
2022-12-06T01:06:36.761Z,101706.59
2022-12-06T01:09:15.067Z,101702.57
2022-12-06T01:11:47.234Z,101700.52
2022-12-06T01:14:19.411Z,101700.52
2022-12-06T01:16:51.724Z,101700.09
2022-12-06T01:19:23.978Z,101699.17
2022-12-06T01:21:56.247Z,101695.84
2022-12-06T01:24:28.443Z,101691.89
2022-12-06T01:27:00.752Z,101691.67
2022-12-06T01:29:32.961Z,101691.20
2022-12-06T01:32:05.292Z,101688.83
2022-12-06T01:34:37.754Z,101690.34
2022-12-06T01:37:10.024Z,101689.09
2022-12-06T01:39:42.185Z,101687.23
2022-12-06T01:42:14.793Z,101690.21
2022-12-06T01:44:46.394Z,101689.92
2022-12-06T01:47:20.687Z,101683.52
2022-12-06T01:49:57.052Z,101680.60
2022-12-06T01:52:32.237Z,101671.54
2022-12-06T01:55:05.305Z,101668.09
2022-12-06T01:57:37.897Z,101665.34
2022-12-06T02:00:10.070Z,101657.82
2022-12-06T02:02:42.300Z,101655.25
2022-12-06T02:05:15.046Z,101655.70
2022-12-06T02:07:47.607Z,101655.83
2022-12-06T02:10:18.311Z,101656.17
2022-12-06T02:12:53.781Z,101650.19
2022-12-06T02:15:28.710Z,101649.80
2022-12-06T02:18:07.013Z,101648.81
2022-12-06T02:21:03.683Z,101647.30
2022-12-06T02:24:05.968Z,101641.23
2022-12-06T02:26:42.655Z,101640.84
2022-12-06T02:29:32.860Z,101639.02
2022-12-06T02:32:10.022Z,101632.27
2022-12-06T02:34:46.815Z,101629.55
2022-12-06T02:37:21.937Z,101632.38
2022-12-06T02:39:57.031Z,101634.54
2022-12-06T02:42:34.544Z,101627.66
2022-12-06T02:45:12.804Z,101632.86
2022-12-06T02:47:45.872Z,101632.09
2022-12-06T02:50:21.075Z,101633.87
2022-12-06T02:52:56.736Z,101628.23
2022-12-06T02:55:29.479Z,101627.38
2022-12-06T02:58:02.047Z,101623.66
2022-12-06T03:00:37.542Z,101616.85
2022-12-06T03:03:28.956Z,101613.13
2022-12-06T03:06:14.662Z,101611.39
2022-12-06T03:08:55.495Z,101615.49
2022-12-06T03:11:30.861Z,101612.16
2022-12-06T03:14:05.597Z,101605.80
2022-12-06T03:16:44.176Z,101609.31
2022-12-06T03:19:20.434Z,101608.52
2022-12-06T03:21:58.693Z,101606.15
2022-12-06T03:24:33.621Z,101603.45
2022-12-06T03:27:08.971Z,101598.70
2022-12-06T03:29:44.627Z,101601.98
2022-12-06T03:32:19.152Z,101600.04
2022-12-06T03:34:53.607Z,101597.20
2022-12-06T03:37:28.203Z,101600.88
2022-12-06T03:40:07.118Z,101600.02
2022-12-06T03:42:40.093Z,101596.23
2022-12-06T03:45:13.817Z,101592.90
2022-12-06T03:47:52.029Z,101595.13
2022-12-06T03:50:28.082Z,101600.53
2022-12-06T03:53:00.789Z,101599.02
2022-12-06T03:55:33.211Z,101602.37
2022-12-06T03:58:05.478Z,101600.39
2022-12-06T04:00:37.645Z,101602.10
2022-12-06T04:03:09.802Z,101600.96
2022-12-06T04:05:42.009Z,101600.83
2022-12-06T04:08:14.251Z,101604.62
2022-12-06T04:10:46.556Z,101606.20
2022-12-06T04:13:19.853Z,101605.45
2022-12-06T04:15:55.887Z,101605.83
2022-12-06T04:18:28.476Z,101603.91
2022-12-06T04:21:17.468Z,101602.48
2022-12-06T04:23:51.098Z,101599.48
2022-12-06T04:26:24.577Z,101600.86
2022-12-06T04:29:14.769Z,101598.30
2022-12-06T04:32:04.933Z,101596.20
2022-12-06T04:34:54.975Z,101598.59
2022-12-06T04:37:45.018Z,101602.48
2022-12-06T04:40:17.459Z,101599.88
2022-12-06T04:43:07.298Z,101601.63
2022-12-06T04:45:39.458Z,101597.52
2022-12-06T04:48:11.979Z,101592.99
2022-12-06T04:50:44.119Z,101589.82
2022-12-06T04:53:16.740Z,101588.15
2022-12-06T04:55:50.367Z,101588.33
2022-12-06T04:58:22.578Z,101588.41
2022-12-06T05:00:55.900Z,101591.58
2022-12-06T05:03:28.347Z,101590.98
2022-12-06T05:06:00.616Z,101589.44
2022-12-06T05:08:33.337Z,101581.50
2022-12-06T05:11:07.936Z,101583.02
2022-12-06T05:13:38.590Z,101581.75
2022-12-06T05:16:13.583Z,101573.73
2022-12-06T05:18:45.816Z,101569.34
2022-12-06T05:21:19.791Z,101568.46
2022-12-06T05:23:53.372Z,101562.58
2022-12-06T05:26:27.408Z,101565.45
2022-12-06T05:29:00.076Z,101553.90
2022-12-06T05:31:30.526Z,101551.60
2022-12-06T05:34:02.881Z,101549.73
2022-12-06T05:36:35.168Z,101550.51
2022-12-06T05:39:07.529Z,101546.27
2022-12-06T05:41:39.843Z,101548.94
2022-12-06T05:44:13.503Z,101555.94
2022-12-06T05:46:45.757Z,101558.23
2022-12-06T05:49:18.147Z,101559.40
2022-12-06T05:51:50.342Z,101558.34
2022-12-06T05:54:23.139Z,101560.27
2022-12-06T05:56:53.616Z,101560.05
2022-12-06T05:59:25.750Z,101561.11
2022-12-06T06:01:58.192Z,101561.85
2022-12-06T06:04:30.617Z,101561.76
2022-12-06T06:07:03.064Z,101562.55
2022-12-06T06:09:35.337Z,101565.50
2022-12-06T06:12:12.512Z,101568.67
2022-12-06T06:14:45.101Z,101568.59
2022-12-06T06:17:17.347Z,101565.80
2022-12-06T06:19:51.502Z,101560.55
2022-12-06T06:22:24.696Z,101553.48
2022-12-06T06:24:56.898Z,101558.41
2022-12-06T06:27:29.222Z,101557.86
2022-12-06T06:30:01.676Z,101561.85
2022-12-06T06:32:34.323Z,101561.80
2022-12-06T06:35:07.292Z,101556.19
2022-12-06T06:37:39.546Z,101556.11
2022-12-06T06:40:12.797Z,101552.73
2022-12-06T06:42:46.136Z,101550.50
2022-12-06T06:45:18.459Z,101549.63
2022-12-06T06:47:50.670Z,101546.70
2022-12-06T06:50:22.947Z,101542.79
2022-12-06T06:52:55.216Z,101538.25
2022-12-06T06:55:27.579Z,101538.42
2022-12-06T06:57:59.874Z,101537.81
2022-12-06T07:00:32.255Z,101541.27
2022-12-06T07:03:04.938Z,101544.20
2022-12-06T07:05:35.491Z,101540.52
2022-12-06T07:08:08.197Z,101543.02
2022-12-06T07:10:38.801Z,101539.45
2022-12-06T07:13:11.077Z,101539.85
2022-12-06T07:15:43.271Z,101539.39
2022-12-06T07:18:17.135Z,101537.10
2022-12-06T07:20:50.197Z,101533.58
2022-12-06T07:23:22.645Z,101532.20
2022-12-06T07:26:01.846Z,101532.80
2022-12-06T07:28:34.793Z,101528.88
2022-12-06T07:31:18.951Z,101525.81
2022-12-06T07:33:53.423Z,101523.94
2022-12-06T07:36:26.655Z,101529.11
2022-12-06T07:39:00.156Z,101525.83
2022-12-06T07:41:50.709Z,101526.47
2022-12-06T07:44:40.499Z,101528.19
2022-12-06T07:47:12.777Z,101524.98
2022-12-06T07:49:45.035Z,101521.73
2022-12-06T07:52:17.255Z,101524.29
2022-12-06T07:54:49.482Z,101515.14
2022-12-06T07:57:22.664Z,101514.20
2022-12-06T07:59:55.646Z,101516.98
2022-12-06T08:02:30.392Z,101521.77
2022-12-06T08:05:02.695Z,101525.82
2022-12-06T08:07:34.993Z,101532.08
2022-12-06T08:10:09.184Z,101530.30
2022-12-06T08:12:41.562Z,101535.30
2022-12-06T08:15:14.340Z,101539.25
2022-12-06T08:17:46.976Z,101541.70
2022-12-06T08:20:22.133Z,101537.97
2022-12-06T08:22:54.415Z,101541.35
2022-12-06T08:25:26.641Z,101548.13
2022-12-06T08:27:59.078Z,101548.54
2022-12-06T08:30:31.576Z,101543.82
2022-12-06T08:33:04.152Z,101541.52
2022-12-06T08:35:39.170Z,101539.86
2022-12-06T08:38:11.578Z,101536.23
2022-12-06T08:40:43.998Z,101529.75
2022-12-06T08:43:16.366Z,101523.69
2022-12-06T08:45:53.749Z,101520.23
2022-12-06T08:48:26.093Z,101520.38
2022-12-06T08:50:58.501Z,101515.00
2022-12-06T08:53:30.971Z,101511.79
2022-12-06T08:56:03.266Z,101504.54
2022-12-06T08:58:35.480Z,101497.53
2022-12-06T09:01:14.590Z,101494.25
2022-12-06T09:03:47.503Z,101490.38
2022-12-06T09:06:20.341Z,101486.36
2022-12-06T09:08:54.133Z,101480.88
2022-12-06T09:11:26.429Z,101476.77
2022-12-06T09:13:59.092Z,101470.11
2022-12-06T09:16:29.703Z,101463.67
2022-12-06T09:19:02.131Z,101462.67
2022-12-06T09:28:46.376Z,101453.90
2022-12-06T09:31:19.166Z,101445.84
2022-12-06T09:33:52.020Z,101439.11
2022-12-06T09:36:26.204Z,101436.70
2022-12-06T09:39:19.130Z,101439.61
2022-12-06T09:42:37.228Z,101437.21
2022-12-06T09:45:35.945Z,101435.86
2022-12-06T09:48:21.405Z,101430.23
2022-12-06T09:51:00.292Z,101422.21
2022-12-06T09:53:43.516Z,101412.91
2022-12-06T09:56:23.148Z,101410.05
2022-12-06T09:59:04.808Z,101407.80
2022-12-06T10:01:44.430Z,101404.64
2022-12-06T10:04:39.495Z,101406.16
2022-12-06T10:07:16.280Z,101400.23
2022-12-06T10:09:55.464Z,101391.91
2022-12-06T10:12:39.105Z,101384.13
2022-12-06T10:15:23.715Z,101381.51
2022-12-06T10:18:11.242Z,101376.31
2022-12-06T10:20:50.667Z,101378.66
2022-12-06T10:23:37.325Z,101375.80
2022-12-06T10:26:17.151Z,101376.63
2022-12-06T10:28:52.565Z,101373.14
2022-12-06T10:31:28.810Z,101369.94
2022-12-06T10:34:04.359Z,101366.63
2022-12-06T10:36:48.654Z,101364.31
2022-12-06T10:39:25.572Z,101361.48
2022-12-06T10:42:03.469Z,101353.27
2022-12-06T10:44:41.515Z,101360.27
2022-12-06T10:47:18.351Z,101358.13
2022-12-06T10:49:55.818Z,101356.99
2022-12-06T10:52:34.642Z,101352.80
2022-12-06T10:55:18.444Z,101356.98
2022-12-06T10:57:56.262Z,101350.52
2022-12-06T11:00:30.392Z,101342.86
2022-12-06T11:03:06.950Z,101339.93
2022-12-06T11:05:42.849Z,101335.44
2022-12-06T11:08:17.132Z,101329.62
2022-12-06T11:10:50.027Z,101325.64
2022-12-06T11:13:27.017Z,101318.76
2022-12-06T11:16:02.877Z,101318.82
2022-12-06T11:18:36.275Z,101318.25
2022-12-06T11:21:20.498Z,101312.36
2022-12-06T11:23:58.145Z,101311.00
2022-12-06T11:26:39.092Z,101306.02
2022-12-06T11:29:16.022Z,101304.73
2022-12-06T11:31:50.724Z,101302.44
2022-12-06T11:34:27.149Z,101302.00
2022-12-06T11:37:00.917Z,101293.32
2022-12-06T11:39:34.161Z,101284.13
2022-12-06T11:42:08.415Z,101274.26
2022-12-06T11:44:49.657Z,101266.64
2022-12-06T11:47:24.288Z,101274.00
2022-12-06T11:50:23.326Z,101273.39
2022-12-06T11:53:02.378Z,101267.90
2022-12-06T11:55:38.407Z,101267.10
2022-12-06T11:58:14.844Z,101266.07
2022-12-06T12:01:02.115Z,101265.18
2022-12-06T12:03:36.848Z,101264.32
2022-12-06T12:06:20.325Z,101266.63
2022-12-06T12:08:59.441Z,101270.56
2022-12-06T12:11:34.178Z,101268.04
2022-12-06T12:14:09.225Z,101272.70
2022-12-06T12:16:48.375Z,101269.36
2022-12-06T12:19:33.208Z,101272.00
2022-12-06T12:22:24.327Z,101269.48
2022-12-06T12:27:52.788Z,101263.98
2022-12-06T12:30:28.470Z,101257.11
2022-12-06T12:33:18.728Z,101258.08
2022-12-06T12:35:52.821Z,101249.71
2022-12-06T12:38:30.080Z,101242.02
2022-12-06T12:41:05.383Z,101240.29
2022-12-06T12:43:37.719Z,101242.84
2022-12-06T12:46:21.424Z,101237.67
2022-12-06T12:48:54.242Z,101229.94
2022-12-06T12:51:32.521Z,101223.70
2022-12-06T12:54:06.739Z,101222.94
2022-12-06T12:56:40.235Z,101225.39
2022-12-06T12:59:18.380Z,101228.11
2022-12-06T13:01:53.338Z,101226.61
2022-12-06T13:04:37.949Z,101222.89
2022-12-06T13:07:16.478Z,101219.45
2022-12-06T13:09:55.151Z,101218.21
2022-12-06T13:12:32.582Z,101218.35
2022-12-06T13:15:10.165Z,101219.44
2022-12-06T13:17:45.564Z,101221.13
2022-12-06T13:20:26.777Z,101222.77
2022-12-06T13:23:03.088Z,101221.33
2022-12-06T13:25:37.530Z,101223.18
2022-12-06T13:28:08.749Z,101222.83
2022-12-06T13:30:42.350Z,101216.66
2022-12-06T13:33:21.849Z,101215.83
2022-12-06T13:35:58.984Z,101208.71
2022-12-06T13:38:37.272Z,101207.62
2022-12-06T13:41:12.286Z,101208.39
2022-12-06T13:43:53.765Z,101207.92
2022-12-06T13:46:29.487Z,101201.21
2022-12-06T13:49:03.508Z,101198.95
2022-12-06T13:51:51.521Z,101194.57
2022-12-06T13:54:34.297Z,101208.14
2022-12-06T13:57:13.570Z,101212.84
2022-12-06T13:59:45.894Z,101212.75
2022-12-06T14:02:51.174Z,101206.77
2022-12-06T14:08:34.540Z,101198.49
2022-12-06T14:11:20.304Z,101200.55
2022-12-06T14:14:03.403Z,101196.07
2022-12-06T14:16:40.532Z,101193.51
2022-12-06T14:19:21.857Z,101194.42
2022-12-06T14:21:59.903Z,101196.35
2022-12-06T14:24:35.306Z,101193.87
2022-12-06T14:27:12.807Z,101189.95
2022-12-06T14:29:59.857Z,101189.00
2022-12-06T14:32:38.864Z,101185.37
2022-12-06T14:35:16.806Z,101185.98
2022-12-06T14:37:54.008Z,101186.20
2022-12-06T14:43:22.492Z,101191.60
2022-12-06T14:45:56.607Z,101192.14
2022-12-06T14:48:51.183Z,101200.31
2022-12-06T14:51:26.647Z,101207.06
2022-12-06T14:54:19.314Z,101214.48
2022-12-06T14:56:51.619Z,101206.92
2022-12-06T15:00:03.053Z,101197.73
2022-12-06T15:02:26.893Z,101189.67
2022-12-06T15:04:59.437Z,101186.71
2022-12-06T15:07:40.957Z,101191.18
2022-12-06T15:10:22.981Z,101195.58
2022-12-06T15:12:59.035Z,101185.88
2022-12-06T15:15:40.496Z,101178.81
2022-12-06T15:18:25.587Z,101179.52
2022-12-06T15:20:59.319Z,101176.30
2022-12-06T15:23:38.473Z,101177.33
2022-12-06T15:26:14.464Z,101178.52
2022-12-06T15:28:47.422Z,101178.21
2022-12-06T15:31:24.488Z,101179.91
2022-12-06T15:33:58.882Z,101172.76
2022-12-06T15:36:36.654Z,101176.91
2022-12-06T15:39:13.541Z,101174.77
2022-12-06T15:41:56.663Z,101172.30
2022-12-06T15:44:43.057Z,101166.36
2022-12-06T15:47:27.945Z,101159.77
2022-12-06T15:50:24.789Z,101158.41
2022-12-06T15:55:46.216Z,101160.66
2022-12-06T15:58:19.804Z,101164.58
2022-12-06T16:00:55.348Z,101163.22
2022-12-06T16:03:34.709Z,101161.38
2022-12-06T16:06:10.205Z,101157.86
2022-12-06T16:08:47.753Z,101155.07
2022-12-06T16:11:22.798Z,101155.95
2022-12-06T16:13:55.416Z,101142.05
2022-12-06T16:16:28.162Z,101139.69
2022-12-06T16:19:02.098Z,101144.00
2022-12-06T16:21:37.747Z,101146.64
2022-12-06T16:24:16.135Z,101142.55
2022-12-06T16:26:49.713Z,101144.02
2022-12-06T16:29:25.318Z,101150.96
2022-12-06T16:31:58.714Z,101149.27
2022-12-06T16:34:31.197Z,101146.70
2022-12-06T16:37:06.732Z,101149.69
2022-12-06T16:39:39.216Z,101153.08
2022-12-06T16:42:12.506Z,101155.81
2022-12-06T16:44:52.121Z,101155.61
2022-12-06T16:49:56.637Z,101151.23
2022-12-06T16:52:29.552Z,101153.30
2022-12-06T16:55:02.620Z,101146.17
2022-12-06T16:57:35.957Z,101145.48
2022-12-06T17:00:28.425Z,101144.51
2022-12-06T17:03:19.847Z,101144.47
2022-12-06T17:05:57.465Z,101142.05
2022-12-06T17:08:32.807Z,101140.77
2022-12-06T17:11:17.408Z,101138.19
2022-12-06T17:13:50.808Z,101141.15
2022-12-06T17:16:23.418Z,101135.96
2022-12-06T17:18:55.707Z,101131.16
2022-12-06T17:21:28.028Z,101125.49
2022-12-06T17:24:03.760Z,101127.12
2022-12-06T17:26:36.348Z,101127.49
2022-12-06T17:29:10.666Z,101127.98
2022-12-06T17:31:43.979Z,101125.13
2022-12-06T17:34:16.851Z,101120.98
2022-12-06T17:36:49.614Z,101117.92
2022-12-06T17:39:22.868Z,101118.51
2022-12-06T17:42:13.012Z,101114.86
2022-12-06T17:44:45.330Z,101111.11
2022-12-06T17:47:17.551Z,101104.98
2022-12-06T17:49:49.859Z,101097.41
2022-12-06T17:52:22.035Z,101093.80
2022-12-06T17:54:54.255Z,101091.45
2022-12-06T17:57:26.483Z,101091.23
2022-12-06T17:59:59.868Z,101088.89
2022-12-06T18:02:32.158Z,101088.52
2022-12-06T18:05:03.484Z,101086.71
2022-12-06T18:07:38.174Z,101083.00
2022-12-06T18:10:12.383Z,101079.89
2022-12-06T18:12:45.051Z,101080.09
2022-12-06T18:15:30.820Z,101078.11
2022-12-06T18:18:06.686Z,101079.89
2022-12-06T18:20:44.790Z,101077.94
2022-12-06T18:23:18.028Z,101081.13
2022-12-06T18:25:50.493Z,101077.35
2022-12-06T18:28:22.736Z,101079.30
2022-12-06T18:30:56.566Z,101076.08
2022-12-06T18:33:32.378Z,101071.18
2022-12-06T18:36:05.328Z,101063.59
2022-12-06T18:38:38.220Z,101060.52
2022-12-06T18:41:23.176Z,101060.30
2022-12-06T18:44:01.144Z,101066.03
2022-12-06T18:46:33.948Z,101062.75
2022-12-06T18:49:06.553Z,101057.02
2022-12-06T18:51:43.829Z,101056.45
2022-12-06T18:54:16.377Z,101058.86
2022-12-06T18:56:47.192Z,101067.02
2022-12-06T18:59:25.955Z,101066.54
2022-12-06T19:02:00.180Z,101063.80
2022-12-06T19:04:33.107Z,101060.65
2022-12-06T19:07:06.801Z,101058.17
2022-12-06T19:09:39.218Z,101052.19
2022-12-06T19:12:11.631Z,101053.27
2022-12-06T19:14:43.817Z,101049.64
2022-12-06T19:17:16.183Z,101046.46
2022-12-06T19:19:48.422Z,101045.45
2022-12-06T19:22:20.782Z,101039.52
2022-12-06T19:24:53.141Z,101034.41
2022-12-06T19:27:25.395Z,101041.13
2022-12-06T19:29:57.731Z,101037.53
2022-12-06T19:32:30.109Z,101034.67
2022-12-06T19:35:08.102Z,101031.48
2022-12-06T19:37:40.863Z,101024.11
2022-12-06T19:40:14.800Z,101025.52
2022-12-06T19:43:04.837Z,101029.98
2022-12-06T19:45:38.477Z,101031.36
2022-12-06T19:48:12.022Z,101027.27
2022-12-06T19:50:45.183Z,101031.70
2022-12-06T19:53:19.520Z,101026.59
2022-12-06T19:55:52.624Z,101024.30
2022-12-06T19:58:25.031Z,101024.02
2022-12-06T20:00:58.118Z,101025.91
2022-12-06T20:03:30.454Z,101021.84
2022-12-06T20:06:08.093Z,101023.20
2022-12-06T20:08:40.731Z,101021.47
2022-12-06T20:12:15.069Z,101021.23
2022-12-06T20:14:48.674Z,101019.95
2022-12-06T20:17:23.708Z,101019.42
2022-12-06T20:20:01.444Z,101016.55
2022-12-06T20:22:34.059Z,101010.23
2022-12-06T20:25:07.105Z,101011.59
2022-12-06T20:27:56.142Z,101012.09
2022-12-06T20:30:30.880Z,101006.50
2022-12-06T20:33:03.964Z,101004.36
2022-12-06T20:35:39.293Z,101002.98
2022-12-06T20:38:11.481Z,101002.95
2022-12-06T20:40:43.815Z,100997.78
2022-12-06T20:43:16.085Z,100993.62
2022-12-06T20:45:48.275Z,100993.48
2022-12-06T20:48:20.923Z,100989.57
2022-12-06T20:50:51.523Z,100986.73
2022-12-06T20:53:23.719Z,100986.47
2022-12-06T20:55:56.634Z,100985.14
2022-12-06T20:58:28.838Z,100986.90
2022-12-06T21:01:01.392Z,100987.19
2022-12-06T21:03:35.097Z,100983.98
2022-12-06T21:06:09.397Z,100984.73
2022-12-06T21:08:43.005Z,100988.86
2022-12-06T21:11:23.908Z,100985.02
2022-12-06T21:13:57.947Z,100981.52
2022-12-06T21:16:31.372Z,100974.73
2022-12-06T21:19:05.453Z,100968.40
2022-12-06T21:21:39.847Z,100968.71
2022-12-06T21:24:15.160Z,100965.29
2022-12-06T21:26:47.541Z,100967.95
2022-12-06T21:29:26.402Z,100965.71
2022-12-06T21:32:05.204Z,100966.27
2022-12-06T21:34:44.537Z,100970.31
2022-12-06T21:37:18.525Z,100969.84
2022-12-06T21:39:50.686Z,100969.34
2022-12-06T21:42:24.091Z,100971.38
2022-12-06T21:44:56.257Z,100965.05
2022-12-06T21:47:28.597Z,100966.04
2022-12-06T21:50:00.967Z,100961.73
2022-12-06T21:52:31.849Z,100960.27
2022-12-06T21:55:04.099Z,100955.83
2022-12-06T21:57:37.626Z,100955.94
2022-12-06T22:00:12.343Z,100956.50
2022-12-06T22:02:44.588Z,100956.99
2022-12-06T22:05:16.804Z,100951.42
2022-12-06T22:07:49.257Z,100962.46
2022-12-06T22:10:21.551Z,100962.70
2022-12-06T22:12:53.767Z,100962.55
2022-12-06T22:15:25.988Z,100964.00
2022-12-06T22:17:58.352Z,100967.90
2022-12-06T22:20:30.492Z,100966.96
2022-12-06T22:23:02.748Z,100964.21
2022-12-06T22:25:34.899Z,100965.64
2022-12-06T22:28:07.192Z,100963.12
2022-12-06T22:30:39.368Z,100968.75
2022-12-06T22:33:11.619Z,100974.31
2022-12-06T22:35:43.851Z,100972.41
2022-12-06T22:38:16.177Z,100971.02
2022-12-06T22:40:48.298Z,100965.48
2022-12-06T22:43:20.531Z,100964.92
2022-12-06T22:45:52.827Z,100957.37
2022-12-06T22:48:25.058Z,100952.65
2022-12-06T22:50:57.271Z,100946.94
2022-12-06T22:53:29.426Z,100936.63
2022-12-06T22:56:03.741Z,100933.38
2022-12-06T22:58:36.051Z,100931.93
2022-12-06T23:01:17.171Z,100924.65
2022-12-06T23:03:50.850Z,100920.46
2022-12-06T23:06:24.949Z,100916.84
2022-12-06T23:08:57.869Z,100913.00
2022-12-06T23:11:31.872Z,100911.04
2022-12-06T23:14:04.469Z,100911.54
2022-12-06T23:16:37.273Z,100913.94
2022-12-06T23:19:11.093Z,100914.71
2022-12-06T23:21:43.402Z,100914.60
2022-12-06T23:24:16.230Z,100912.30
2022-12-06T23:26:54.575Z,100897.95
2022-12-06T23:29:29.961Z,100899.06
2022-12-06T23:32:02.257Z,100901.11
2022-12-06T23:34:34.813Z,100898.90
2022-12-06T23:37:06.983Z,100893.73
2022-12-06T23:39:39.595Z,100888.77
2022-12-06T23:42:11.878Z,100896.19
2022-12-06T23:44:44.074Z,100898.50
2022-12-06T23:47:16.211Z,100892.59
2022-12-06T23:49:48.438Z,100892.27
2022-12-06T23:52:20.552Z,100897.52
2022-12-06T23:54:52.727Z,100895.38
2022-12-06T23:57:24.912Z,100896.56
2022-12-06T23:59:57.186Z,100891.65
